Time;durP1;ratioP1;P1;durP2;ratioP2;P2;SDS_P1;SDS_P2;PMS_P1;PMS_P2;Temp;Humidity;BMP_temperature;BMP_pressure;BME280_temperature;BME280_humidity;BME280_pressure;Samples;Min_cycle;Max_cycle;Signal;HPM_P1;HPM_P2
2022/12/12 00:02:15;;;;;;;12.90;5.80;;;;;;;-12.88;73.44;101535.19;4948447;28;20044;-64
2022/12/12 00:04:52;;;;;;;11.70;5.70;;;;;;;-12.85;73.17;101535.50;4953931;27;20037;-64
2022/12/12 00:07:46;;;;;;;16.00;5.82;;;;;;;-12.75;73.53;101538.19;4904389;28;20317;-65
2022/12/12 00:10:27;;;;;;;7.88;4.68;;;;;;;-12.56;73.99;101544.97;4940439;27;20243;-66
2022/12/12 00:13:17;;;;;;;11.88;4.78;;;;;;;-12.97;73.81;101454.69;4970992;27;20043;-64
2022/12/12 00:19:01;;;;;;;9.05;4.57;;;;;;;-12.82;73.84;101415.00;4923249;28;20893;-67
2022/12/12 00:21:41;;;;;;;8.15;4.13;;;;;;;-11.84;73.93;101539.16;4956807;27;20061;-65
2022/12/12 00:24:48;;;;;;;8.18;4.35;;;;;;;-11.54;73.67;101536.94;4947391;28;20195;-65
2022/12/12 00:27:43;;;;;;;;;;;;;;;-11.22;73.43;101525.50;4950398;28;20141;-66
2022/12/12 00:36:20;;;;;;;11.65;4.60;;;;;;;-11.14;71.84;101539.69;4902910;28;20058;-66
2022/12/12 00:39:04;;;;;;;11.05;4.28;;;;;;;-10.96;72.05;101536.28;4949404;28;20047;-65
2022/12/12 00:41:57;;;;;;;11.90;6.10;;;;;;;-10.78;71.85;101531.09;4942832;28;20048;-65
2022/12/12 00:44:54;;;;;;;10.45;5.05;;;;;;;-10.62;71.03;101524.13;4881568;28;20094;-66
2022/12/12 00:47:31;;;;;;;19.08;5.15;;;;;;;-10.58;70.53;101525.28;4941009;28;20047;-65
2022/12/12 00:50:26;;;;;;;10.90;4.25;;;;;;;-10.72;69.53;101491.25;4935416;28;20047;-65
2022/12/12 00:53:02;;;;;;;9.48;4.63;;;;;;;-10.61;70.30;101489.66;4933219;28;20300;-65
2022/12/12 00:56:01;;;;;;;11.23;6.60;;;;;;;-10.37;70.36;101493.44;4937289;28;20037;-65
2022/12/12 00:58:55;;;;;;;12.55;5.50;;;;;;;-10.46;71.08;101446.41;4929465;28;20049;-66
2022/12/12 01:01:53;;;;;;;7.97;3.70;;;;;;;-10.72;70.90;101364.97;4919992;28;20039;-64
2022/12/12 01:07:41;;;;;;;10.38;5.10;;;;;;;-9.25;71.59;101498.69;4964655;28;22539;-66
2022/12/12 01:10:28;;;;;;;11.35;5.32;;;;;;;-8.92;71.53;101494.63;4947400;28;20339;-66
2022/12/12 01:13:12;;;;;;;16.95;7.75;;;;;;;-8.84;69.97;101488.50;4896553;28;20083;-66
2022/12/12 01:15:49;;;;;;;22.50;7.47;;;;;;;-8.99;69.33;101505.00;4947930;28;20050;-65
2022/12/12 01:18:32;;;;;;;14.48;7.07;;;;;;;-9.08;68.74;101511.84;4959402;28;20049;-66
2022/12/12 01:21:30;;;;;;;16.38;8.02;;;;;;;-9.04;68.59;101509.69;4904714;28;20055;-66
2022/12/12 01:24:08;;;;;;;24.95;7.38;;;;;;;-9.35;67.00;101514.75;4947895;28;20047;-66
2022/12/12 01:26:44;;;;;;;16.13;8.32;;;;;;;-9.54;66.35;101503.84;4935430;28;20084;-66
2022/12/12 01:29:26;;;;;;;23.33;9.50;;;;;;;-9.67;66.31;101509.53;4941162;28;20055;-66
2022/12/12 01:32:19;;;;;;;23.60;8.93;;;;;;;-9.70;66.59;101506.75;4905424;28;20087;-66
2022/12/12 01:37:45;;;;;;;16.70;6.18;;;;;;;-10.24;66.32;101450.75;4926374;28;19933;-66
2022/12/12 01:40:51;;;;;;;13.98;6.07;;;;;;;-9.81;66.66;101502.41;4930513;28;20111;-66
2022/12/12 01:43:34;;;;;;;12.50;6.63;;;;;;;-9.48;67.33;101503.47;4948163;28;20138;-64
2022/12/12 01:49:40;;;;;;;16.40;7.57;;;;;;;-9.22;66.79;101493.88;4935899;28;20040;-65
2022/12/12 01:52:35;;;;;;;15.52;7.30;;;;;;;-9.26;66.52;101491.88;4940506;28;20086;-65
2022/12/12 01:55:29;;;;;;;21.55;7.60;;;;;;;-9.07;67.29;101484.13;4946363;28;20047;-65
2022/12/12 01:58:25;;;;;;;25.20;9.00;;;;;;;-8.94;66.48;101491.06;4961182;28;20062;-65
2022/12/12 02:01:09;;;;;;;26.48;9.52;;;;;;;-8.93;66.32;101492.84;4891114;28;20039;-65
2022/12/12 02:04:06;;;;;;;21.92;8.93;;;;;;;-8.81;66.95;101493.84;4958985;28;20086;-65
2022/12/12 02:06:52;;;;;;;22.85;9.95;;;;;;;-8.84;66.47;101483.44;4919652;28;21004;-65
2022/12/12 02:09:32;;;;;;;25.23;10.95;;;;;;;-8.84;65.73;101488.50;4942866;28;20114;-64
2022/12/12 02:16:07;;;;;;;33.47;10.85;;;;;;;-8.59;65.75;101476.16;4935590;28;20139;-64
2022/12/12 02:19:03;;;;;;;23.70;9.60;;;;;;;-8.52;64.81;101467.41;4938599;28;20048;-65
2022/12/12 02:22:10;;;;;;;26.05;10.80;;;;;;;-8.54;63.80;101463.84;4962699;28;20059;-65
2022/12/12 02:25:26;;;;;;;30.58;10.48;;;;;;;-8.50;64.31;101455.75;4968662;27;21053;-64
2022/12/12 02:28:29;;;;;;;22.33;9.20;;;;;;;-8.14;64.61;101472.88;4971140;27;20035;-64
2022/12/12 02:31:25;;;;;;;26.20;8.07;;;;;;;-8.03;64.06;101445.84;4951910;27;20058;-64
2022/12/12 02:34:19;;;;;;;19.27;7.75;;;;;;;-7.97;62.11;101466.59;4987470;27;20792;-64
2022/12/12 02:37:14;;;;;;;17.70;7.13;;;;;;;-7.99;61.71;101468.13;4936082;27;20372;-64
2022/12/12 02:40:08;;;;;;;22.15;8.02;;;;;;;-7.90;62.46;101462.88;4960254;27;20055;-64
2022/12/12 02:42:56;;;;;;;23.27;7.72;;;;;;;-7.82;61.77;101467.75;4958436;27;20086;-66
2022/12/12 02:45:50;;;;;;;16.38;7.45;;;;;;;-8.60;60.88;101336.69;4930597;28;20043;-65
2022/12/12 02:48:45;;;;;;;23.08;8.60;;;;;;;-7.81;60.23;101456.88;4927466;28;20059;-65
2022/12/12 02:51:34;;;;;;;16.92;7.35;;;;;;;-7.70;60.32;101456.78;4929183;28;20037;-65
2022/12/12 02:54:25;;;;;;;19.48;7.13;;;;;;;-7.43;60.65;101436.03;4958632;27;20041;-65
2022/12/12 02:57:09;;;;;;;19.30;7.28;;;;;;;-7.51;60.24;101393.94;4971260;27;20417;-64
2022/12/12 02:59:54;;;;;;;24.80;7.57;;;;;;;-7.07;60.16;101434.41;4939724;28;20044;-65
2022/12/12 03:07:45;;;;;;;17.23;7.38;;;;;;;-6.95;60.61;101440.38;4943767;27;20111;-64
2022/12/12 03:12:26;;;;;;;16.95;6.30;;;;;;;-6.86;60.29;101413.84;4880060;28;20144;-64
2022/12/12 03:15:15;;;;;;;12.82;6.70;;;;;;;-6.75;60.09;101418.06;4887881;28;20042;-64
2022/12/12 03:18:42;;;;;;;10.98;5.25;;;;;;;-6.75;59.20;101413.00;4876312;28;20049;-64
2022/12/12 03:24:48;;;;;;;12.98;5.90;;;;;;;-6.75;58.78;101424.03;4869888;28;20046;-64
2022/12/12 03:27:43;;;;;;;14.55;5.70;;;;;;;-6.55;59.48;101406.78;4863306;28;20064;-64
2022/12/12 03:30:24;;;;;;;12.80;6.43;;;;;;;-6.53;58.83;101385.75;4866847;28;20737;-64
2022/12/12 03:33:16;;;;;;;13.80;6.05;;;;;;;-6.41;57.95;101397.59;4864608;28;20058;-64
2022/12/12 03:36:27;;;;;;;15.55;6.45;;;;;;;-6.42;57.42;101383.09;4874248;28;20099;-64
2022/12/12 03:39:39;;;;;;;16.95;6.72;;;;;;;-6.17;59.28;101385.66;4855160;28;20218;-64
2022/12/12 03:42:42;;;;;;;13.93;5.75;;;;;;;-6.40;58.96;101333.22;4913140;28;20111;-64
2022/12/12 03:45:28;;;;;;;20.73;6.55;;;;;;;-5.98;57.39;101398.00;4907603;27;20052;-64
2022/12/12 03:48:22;;;;;;;14.43;6.18;;;;;;;-6.08;56.33;101396.47;4985228;27;20039;-64
2022/12/12 03:51:26;;;;;;;13.65;5.65;;;;;;;-6.10;56.40;101392.94;4922523;28;20047;-64
2022/12/12 03:54:43;;;;;;;10.25;5.70;;;;;;;-6.23;56.54;101375.94;4973700;27;20110;-64
2022/12/12 04:00:43;;;;;;;9.85;4.97;;;;;;;-6.22;55.58;101377.72;4958575;27;20055;-64
2022/12/12 04:03:36;;;;;;;8.43;4.63;;;;;;;-6.24;56.63;101358.94;4953339;27;20036;-63
2022/12/12 04:06:32;;;;;;;10.20;4.07;;;;;;;-6.04;56.53;101377.19;4965814;27;20040;-64
2022/12/12 04:15:45;;;;;;;7.63;3.65;;;;;;;-6.40;53.42;101358.66;4960278;27;20047;-64
2022/12/12 04:18:35;;;;;;;8.55;3.60;;;;;;;-6.45;52.67;101377.78;4950744;27;20329;-64
2022/12/12 04:24:40;;;;;;;7.88;3.90;;;;;;;-6.36;55.57;101383.53;4954305;27;20048;-63
2022/12/12 04:27:30;;;;;;;9.25;4.10;;;;;;;-6.40;53.92;101381.53;4944995;27;20074;-64
2022/12/12 04:30:23;;;;;;;12.75;5.00;;;;;;;-6.40;54.29;101386.63;4912010;28;20108;-64
2022/12/12 04:33:28;;;;;;;13.70;5.45;;;;;;;-6.45;53.36;101387.97;4948331;27;20381;-63
2022/12/12 04:36:24;;;;;;;16.77;6.97;;;;;;;-6.54;54.58;101381.47;4845091;28;20035;-63
2022/12/12 04:39:08;;;;;;;18.55;8.00;;;;;;;-6.54;55.81;101378.94;4944729;28;20044;-63
2022/12/12 04:44:50;;;;;;;17.60;7.43;;;;;;;-6.89;54.14;101342.50;4958299;27;20211;-64
2022/12/12 04:47:43;;;;;;;13.55;5.25;;;;;;;-6.69;54.37;101369.31;4970458;27;20050;-63
2022/12/12 04:56:27;;;;;;;14.02;5.75;;;;;;;-6.80;54.32;101363.50;4931139;28;20102;-64
2022/12/12 04:59:10;;;;;;;12.90;4.93;;;;;;;-6.79;54.96;101365.25;4959669;28;20043;-63
2022/12/12 05:02:00;;;;;;;13.10;5.13;;;;;;;-6.76;55.68;101355.31;4963946;27;20160;-63
2022/12/12 05:05:04;;;;;;;12.05;5.72;;;;;;;-6.91;54.24;101359.28;4964146;27;20056;-63
2022/12/12 05:07:51;;;;;;;14.48;5.20;;;;;;;-6.84;55.73;101364.94;4930098;27;20044;-64
2022/12/12 05:10:44;;;;;;;10.40;5.35;;;;;;;-6.87;54.83;101366.38;4964732;27;20381;-63
2022/12/12 05:13:31;;;;;;;13.32;5.70;;;;;;;-6.91;54.81;101364.38;4943169;27;20048;-63
2022/12/12 05:16:27;;;;;;;16.95;6.93;;;;;;;-7.11;55.35;101330.81;4975432;27;20372;-63
2022/12/12 05:19:13;;;;;;;21.23;8.98;;;;;;;-6.93;56.21;101371.03;4946894;27;20044;-63
2022/12/12 05:21:59;;;;;;;21.83;8.68;;;;;;;-7.03;55.46;101365.28;4933538;27;20052;-63
2022/12/12 05:24:49;;;;;;;24.92;8.27;;;;;;;-7.13;55.68;101370.47;4941923;27;20980;-63
2022/12/12 05:27:53;;;;;;;20.33;8.05;;;;;;;-7.24;54.90;101373.88;4926752;28;20038;-63
2022/12/12 05:30:30;;;;;;;24.17;8.20;;;;;;;-7.33;55.79;101360.53;4841565;28;20052;-63
2022/12/12 05:33:17;;;;;;;12.90;7.00;;;;;;;-7.30;55.54;101373.44;4936642;28;20044;-63
2022/12/12 05:36:04;;;;;;;16.08;7.50;;;;;;;-7.29;56.50;101370.13;4891954;28;20060;-63
2022/12/12 05:39:09;;;;;;;18.33;7.10;;;;;;;-7.35;56.23;101374.78;4882213;28;20057;-63
2022/12/12 05:42:13;;;;;;;16.00;7.00;;;;;;;-7.41;55.74;101386.25;4903296;28;20142;-63
2022/12/12 05:45:17;;;;;;;25.13;7.57;;;;;;;-7.40;56.83;101387.13;4908743;28;20107;-63
2022/12/12 05:50:55;;;;;;;22.65;7.13;;;;;;;-7.45;56.42;101391.84;4885572;28;20055;-63
2022/12/12 05:53:35;;;;;;;21.05;7.90;;;;;;;-7.45;56.81;101394.41;4914549;28;20082;-63
2022/12/12 05:56:23;;;;;;;17.55;8.25;;;;;;;-7.44;57.80;101401.25;4916918;28;20048;-63
2022/12/12 05:59:11;;;;;;;20.10;8.95;;;;;;;-7.55;57.15;101386.88;4921209;28;20398;-63
2022/12/12 06:04:42;;;;;;;31.67;8.43;;;;;;;-7.73;56.97;101395.66;4909403;28;19921;-63
2022/12/12 06:07:20;;;;;;;23.10;7.65;;;;;;;-7.83;57.92;101379.75;4851121;28;20057;-63
2022/12/12 06:10:16;;;;;;;16.67;6.75;;;;;;;-7.79;58.08;101395.19;4928357;28;20201;-63
2022/12/12 06:16:15;;;;;;;27.55;8.90;;;;;;;-8.14;57.83;101365.50;4917431;28;20166;-63
2022/12/12 06:19:06;;;;;;;32.25;9.48;;;;;;;-8.11;57.99;101380.94;4930806;27;20067;-63
2022/12/12 06:25:00;;;;;;;25.08;10.13;;;;;;;-8.38;60.00;101395.84;4956628;27;20311;-63
2022/12/12 06:27:36;;;;;;;25.98;11.23;;;;;;;-8.51;60.39;101403.25;4961761;27;20070;-63
2022/12/12 06:33:16;;;;;;;27.10;11.07;;;;;;;-8.94;59.86;101394.81;4944200;27;20046;-63
2022/12/12 06:36:12;;;;;;;19.20;8.52;;;;;;;-9.29;60.04;101385.28;4957678;28;20044;-63
2022/12/12 06:38:55;;;;;;;16.10;7.22;;;;;;;-9.45;60.76;101410.13;4904457;27;20039;-63
2022/12/12 06:41:30;;;;;;;14.77;6.85;;;;;;;-10.45;61.21;101283.97;4957685;27;20043;-63
2022/12/12 06:44:20;;;;;;;13.18;6.00;;;;;;;-9.94;62.04;101414.53;4960226;28;20973;-63
2022/12/12 06:47:09;;;;;;;10.48;5.03;;;;;;;-10.22;62.99;101401.22;4946407;27;20064;-63
2022/12/12 06:50:04;;;;;;;11.82;5.70;;;;;;;-10.48;63.49;101412.56;4954983;27;20316;-64
2022/12/12 06:52:55;;;;;;;11.65;5.80;;;;;;;-10.75;64.27;101415.22;4951077;28;20382;-63
2022/12/12 06:55:39;;;;;;;14.50;5.25;;;;;;;-10.99;64.84;101414.84;4906333;28;20051;-63
2022/12/12 06:58:31;;;;;;;9.48;4.07;;;;;;;-11.26;65.65;101409.88;4898367;28;20043;-63
2022/12/12 07:01:32;;;;;;;10.45;4.93;;;;;;;-11.49;66.28;101430.53;4978971;27;20115;-63
2022/12/12 07:04:19;;;;;;;11.02;4.88;;;;;;;-11.58;66.76;101420.50;4957470;27;20303;-64
2022/12/12 07:07:11;;;;;;;12.48;5.63;;;;;;;-11.65;67.01;101433.31;4946833;27;20085;-63
2022/12/12 07:10:01;;;;;;;15.00;7.03;;;;;;;-11.70;67.71;101442.09;4921250;28;20294;-63
2022/12/12 07:12:46;;;;;;;13.77;7.68;;;;;;;-11.89;67.89;101460.59;4939953;28;20043;-64
2022/12/12 07:15:47;;;;;;;17.48;6.95;;;;;;;-12.01;68.63;101456.97;4949108;27;20039;-63
2022/12/12 07:18:35;;;;;;;33.33;13.88;;;;;;;-12.10;68.94;101448.53;4926497;28;20063;-62
2022/12/12 07:21:40;;;;;;;35.13;18.98;;;;;;;-12.24;69.48;101435.56;4939694;27;20043;-63
2022/12/12 07:27:18;;;;;;;80.95;30.35;;;;;;;-12.60;71.10;101428.88;4972728;27;20104;-62
2022/12/12 07:29:58;;;;;;;132.93;42.88;;;;;;;-12.68;71.50;101439.84;4919157;28;20094;-62
2022/12/12 07:33:00;;;;;;;96.85;32.53;;;;;;;-12.76;72.42;101430.66;4934160;28;20043;-63
2022/12/12 07:38:41;;;;;;;68.70;21.13;;;;;;;-12.95;72.37;101391.91;4967575;27;20215;-62
2022/12/12 07:41:19;;;;;;;27.17;10.25;;;;;;;-13.12;72.20;101353.47;4964266;27;20209;-64
2022/12/12 07:44:11;;;;;;;26.48;12.82;;;;;;;-12.76;72.60;101410.53;4958736;27;20727;-62
2022/12/12 07:46:48;;;;;;;33.30;13.00;;;;;;;-12.76;72.44;101420.59;4942855;27;20063;-62
2022/12/12 07:49:30;;;;;;;35.75;13.18;;;;;;;-12.72;72.40;101417.66;4954277;27;20042;-62
2022/12/12 07:52:20;;;;;;;28.20;11.55;;;;;;;-12.58;72.42;101410.50;4949790;27;20082;-61
2022/12/12 07:55:07;;;;;;;32.67;13.65;;;;;;;-12.55;72.27;101399.09;4921483;28;20081;-63
2022/12/12 07:58:14;;;;;;;22.48;9.48;;;;;;;-12.57;71.98;101392.16;4967181;27;20038;-64
2022/12/12 08:00:59;;;;;;;62.70;16.48;;;;;;;-13.04;71.82;101307.28;4951697;27;20070;-63
2022/12/12 08:04:05;;;;;;;59.90;18.73;;;;;;;-12.78;71.58;101361.69;4926916;28;20044;-63
2022/12/12 08:06:41;;;;;;;;;;;;;;;-12.73;71.71;101370.53;4942367;28;20154;-62
2022/12/12 08:09:55;;;;;;;53.35;15.07;;;;;;;-12.62;72.12;101369.94;4953252;27;20033;-63
2022/12/12 08:12:37;;;;;;;146.55;37.28;;;;;;;-12.48;72.28;101362.75;4962508;27;20162;-63
2022/12/12 08:15:19;;;;;;;187.43;50.75;;;;;;;-12.53;72.62;101333.75;4961231;27;20094;-62
2022/12/12 08:18:30;;;;;;;140.10;43.67;;;;;;;-12.54;72.22;101332.00;4958949;27;20039;-64
2022/12/12 08:21:30;;;;;;;124.60;33.88;;;;;;;-12.79;71.87;101311.22;4980654;27;20042;-63
2022/12/12 08:24:16;;;;;;;143.18;41.30;;;;;;;-12.86;71.79;101323.22;4906966;28;20040;-63
2022/12/12 08:26:56;;;;;;;184.07;51.60;;;;;;;-12.97;72.32;101317.94;4919986;28;20053;-62
2022/12/12 08:29:45;;;;;;;;;;;;;;;-12.92;72.37;101326.81;4949342;28;20063;-63
2022/12/12 08:32:31;;;;;;;124.95;37.83;;;;;;;-12.94;72.55;101329.16;4950184;28;19916;-63
2022/12/12 08:35:24;;;;;;;110.38;35.05;;;;;;;-12.88;73.12;101322.22;4906097;28;21410;-64
2022/12/12 08:44:07;;;;;;;33.67;13.30;;;;;;;-12.92;73.91;101332.72;4924817;28;20245;-65
2022/12/12 08:47:08;;;;;;;32.53;12.77;;;;;;;-12.94;74.26;101314.06;4948926;28;20044;-64
2022/12/12 08:55:38;;;;;;;21.88;8.00;;;;;;;-13.19;73.20;101315.91;4923158;28;20052;-63
2022/12/12 08:58:22;;;;;;;22.83;8.98;;;;;;;-13.08;73.57;101335.44;4951009;28;20043;-63
2022/12/12 09:04:57;;;;;;;24.08;10.00;;;;;;;-13.02;74.08;101336.75;4940448;28;20063;-64
2022/12/12 09:07:52;;;;;;;15.52;7.70;;;;;;;-12.95;74.35;101344.09;4953601;28;20993;-63
2022/12/12 09:10:45;;;;;;;20.20;7.88;;;;;;;-12.86;74.92;101337.44;4937655;28;20088;-64
2022/12/12 09:13:31;;;;;;;17.50;7.30;;;;;;;-12.75;74.60;101351.00;4973456;28;20032;-64
2022/12/12 09:19:47;;;;;;;14.05;6.65;;;;;;;-12.65;73.49;101359.59;4922406;28;20056;-63
2022/12/12 09:22:58;;;;;;;17.77;6.60;;;;;;;-12.68;73.14;101354.28;4963343;28;20065;-65
2022/12/12 09:25:59;;;;;;;50.25;17.00;;;;;;;-12.71;73.00;101333.81;4949986;27;20040;-62
2022/12/12 09:28:47;;;;;;;78.63;25.23;;;;;;;-12.81;72.87;101336.22;4944931;27;20052;-63
2022/12/12 09:38:05;;;;;;;67.22;20.75;;;;;;;-12.67;73.72;101340.94;4967264;28;20221;-63
2022/12/12 09:41:25;;;;;;;59.63;17.80;;;;;;;-12.63;74.02;101340.47;4935823;28;20063;-63
2022/12/12 09:44:36;;;;;;;50.33;16.02;;;;;;;-12.55;74.40;101335.25;4940849;28;20048;-62
2022/12/12 09:47:35;;;;;;;59.58;17.42;;;;;;;-12.56;74.39;101298.22;4947913;27;20329;-62
2022/12/12 09:50:26;;;;;;;68.30;18.23;;;;;;;-12.49;74.49;101277.91;4884475;28;20043;-63
2022/12/12 09:53:29;;;;;;;260.08;51.10;;;;;;;-12.30;74.38;101304.03;4871610;28;20045;-62
2022/12/12 09:56:48;;;;;;;350.38;60.15;;;;;;;-12.23;74.36;101301.31;4924101;28;20054;-62
2022/12/12 09:59:37;;;;;;;149.57;31.17;;;;;;;-12.09;74.67;101304.19;4941004;28;21362;-62
2022/12/12 10:06:15;;;;;;;29.33;11.73;;;;;;;-11.92;75.33;101283.91;4967337;28;20310;-63
2022/12/12 10:09:35;;;;;;;30.20;11.98;;;;;;;-11.73;75.48;101307.47;4930686;28;20239;-61
2022/12/12 10:12:19;;;;;;;39.00;12.20;;;;;;;-11.76;75.45;101292.03;4901734;28;20095;-61
2022/12/12 10:18:20;;;;;;;44.92;13.57;;;;;;;-11.56;75.64;101285.34;4947642;27;20051;-62
2022/12/12 10:21:02;;;;;;;;;;;;;;;-11.33;76.07;101316.00;4915386;28;20041;-63
2022/12/12 10:24:12;;;;;;;56.33;15.05;;;;;;;-11.07;76.57;101314.88;4893439;28;19920;-63
2022/12/12 10:27:51;;;;;;;52.60;16.70;;;;;;;-11.22;76.04;101273.16;4899838;28;20078;-66
2022/12/12 10:33:32;;;;;;;59.58;20.25;;;;;;;-10.88;75.52;101318.22;4919850;28;20351;-63
2022/12/12 10:36:37;;;;;;;45.55;17.30;;;;;;;-10.74;75.55;101313.47;4934341;28;20052;-64
2022/12/12 10:39:31;;;;;;;33.97;13.95;;;;;;;-10.83;75.24;101274.78;4906401;28;20096;-64
2022/12/12 10:43:05;;;;;;;26.05;10.15;;;;;;;-10.34;75.94;101304.19;4962806;27;20253;-64
2022/12/12 10:46:28;;;;;;;21.27;8.27;;;;;;;-10.21;76.27;101299.34;4962065;27;20061;-64
2022/12/12 10:57:29;;;;;;;17.45;6.70;;;;;;;-10.42;73.03;101251.38;4819864;28;20270;-63
2022/12/12 11:00:37;;;;;;;15.65;6.03;;;;;;;-10.22;72.72;101275.72;4830620;28;20102;-63
2022/12/12 11:03:41;;;;;;;18.20;6.90;;;;;;;-10.08;73.22;101288.59;4814293;28;20372;-63
2022/12/12 11:07:07;;;;;;;12.18;6.25;;;;;;;-10.21;72.69;101262.34;4823376;28;20090;-63
2022/12/12 11:10:34;;;;;;;19.50;6.43;;;;;;;-10.16;72.53;101260.16;4809987;28;20062;-62
2022/12/12 11:13:37;;;;;;;19.20;6.72;;;;;;;-10.13;72.32;101260.44;4789807;29;20047;-63
2022/12/12 11:16:43;;;;;;;20.02;8.70;;;;;;;-10.17;72.94;101233.16;4797867;28;20054;-63
2022/12/12 11:19:41;;;;;;;21.08;8.60;;;;;;;-9.91;73.91;101241.94;4777909;29;20066;-63
2022/12/12 11:25:35;;;;;;;23.60;10.55;;;;;;;-9.64;74.33;101246.69;4867485;28;20063;-64
2022/12/12 11:28:37;;;;;;;29.42;10.90;;;;;;;-9.59;73.81;101247.06;4839156;28;20375;-64
2022/12/12 11:34:34;;;;;;;21.50;7.15;;;;;;;-9.86;72.31;101185.03;4941410;28;20044;-64
2022/12/12 11:38:12;;;;;;;20.17;7.32;;;;;;;-10.29;71.10;101146.25;4865265;28;20226;-65
2022/12/12 11:41:21;;;;;;;17.42;6.43;;;;;;;-9.68;70.95;101221.94;4868396;28;20298;-65
2022/12/12 11:44:42;;;;;;;12.90;6.53;;;;;;;-9.47;71.50;101221.84;4830628;28;20038;-64
2022/12/12 11:47:59;;;;;;;13.20;6.40;;;;;;;-9.21;72.55;101202.00;4873721;28;20065;-65
2022/12/12 11:51:34;;;;;;;15.35;6.53;;;;;;;-9.06;72.62;101196.34;4925123;28;20088;-64
2022/12/12 11:58:20;;;;;;;11.48;5.72;;;;;;;-9.32;70.08;101192.69;4869401;28;20390;-65
2022/12/12 12:08:33;;;;;;;10.70;5.32;;;;;;;-9.23;69.56;101180.75;4819051;28;20054;-65
2022/12/12 12:11:34;;;;;;;16.30;5.90;;;;;;;-9.01;71.10;101184.91;4859049;28;20055;-65
2022/12/12 12:14:31;;;;;;;15.27;6.28;;;;;;;-9.17;69.64;101187.94;4849895;28;21967;-65
2022/12/12 12:17:57;;;;;;;;;;;;;;;;;;;;;
2022/12/12 12:28:38;;;;;;;15.77;7.35;;;;;;;-9.10;69.87;101156.38;4812514;28;20168;-62
2022/12/12 12:35:09;;;;;;;;;;;;;;;-9.16;69.35;101146.66;4766241;29;20365;-62
2022/12/12 12:38:22;;;;;;;16.38;7.05;;;;;;;-9.26;69.28;101137.50;4751707;29;19957;-63
2022/12/12 12:41:24;;;;;;;15.85;6.55;;;;;;;-9.13;70.77;101135.13;4792392;29;20067;-63
2022/12/12 12:44:32;;;;;;;18.45;7.32;;;;;;;-9.19;69.76;101119.44;4796784;29;20198;-63
2022/12/12 12:48:02;;;;;;;22.77;8.45;;;;;;;-9.15;69.68;101141.72;4772182;29;20047;-63
2022/12/12 12:51:05;;;;;;;14.32;6.78;;;;;;;-9.06;70.51;101140.63;4771677;29;20043;-63
2022/12/12 12:53:53;;;;;;;17.38;7.75;;;;;;;-9.16;70.20;101122.25;4731551;29;20057;-63
2022/12/12 12:57:13;;;;;;;15.75;7.55;;;;;;;-8.98;71.13;101121.88;4784859;29;20048;-63
2022/12/12 12:59:57;;;;;;;15.70;6.77;;;;;;;-8.96;71.01;101107.63;4756496;29;20052;-63
2022/12/12 13:02:46;;;;;;;19.83;7.18;;;;;;;-8.78;72.61;101091.31;4831250;28;20617;-63
2022/12/12 13:05:49;;;;;;;12.77;6.85;;;;;;;-8.70;71.69;101091.88;4791828;28;20050;-62
2022/12/12 13:09:03;;;;;;;16.75;7.05;;;;;;;-8.69;71.59;101094.50;4830880;28;20042;-62
2022/12/12 13:11:49;;;;;;;15.00;6.65;;;;;;;-8.70;72.32;101062.34;4874480;28;20291;-63
2022/12/12 13:18:07;;;;;;;11.20;5.40;;;;;;;-8.52;72.58;101066.97;4815973;28;20193;-62
2022/12/12 13:24:25;;;;;;;18.77;6.22;;;;;;;-8.31;73.04;101047.31;4850641;28;20078;-63
2022/12/12 13:27:19;;;;;;;13.48;6.45;;;;;;;-8.28;73.13;101033.22;4892429;28;20117;-63
2022/12/12 13:30:09;;;;;;;15.30;7.07;;;;;;;-8.32;72.76;101018.56;4857469;28;20038;-64
2022/12/12 13:33:41;;;;;;;13.60;6.47;;;;;;;-8.30;72.55;101024.63;4873433;28;20080;-63
2022/12/12 13:36:45;;;;;;;12.25;5.80;;;;;;;-8.29;72.63;101025.50;4898307;28;20057;-63
2022/12/12 13:39:39;;;;;;;14.95;5.63;;;;;;;-8.29;72.59;101021.31;4918025;28;20329;-63
2022/12/12 13:42:51;;;;;;;17.25;6.80;;;;;;;-8.20;72.92;101025.28;4919291;28;20040;-62
2022/12/12 13:49:28;;;;;;;16.38;6.57;;;;;;;-8.22;72.64;101021.75;4918960;28;20131;-64
2022/12/12 13:52:35;;;;;;;16.00;6.28;;;;;;;-8.23;72.56;101025.09;4898142;28;20056;-64
2022/12/12 13:55:44;;;;;;;15.00;7.88;;;;;;;-8.16;72.71;101032.31;4846313;28;20071;-63
2022/12/12 14:02:00;;;;;;;15.07;7.20;;;;;;;-8.09;72.96;101034.53;4887652;28;20053;-62
2022/12/12 14:05:18;;;;;;;21.23;7.82;;;;;;;-8.27;73.45;100983.41;4857379;28;20348;-63
2022/12/12 14:08:05;;;;;;;22.13;9.35;;;;;;;-8.00;73.22;101025.03;4903930;28;20053;-63
2022/12/12 14:11:09;;;;;;;18.42;7.65;;;;;;;-7.90;74.12;101027.44;4910402;28;20041;-63
2022/12/12 14:14:19;;;;;;;16.92;8.55;;;;;;;-7.88;74.67;101000.53;4906356;28;20037;-63
2022/12/12 14:21:15;;;;;;;18.45;9.23;;;;;;;-7.75;74.91;100999.69;4921632;28;20508;-62
2022/12/12 14:23:53;;;;;;;21.25;8.85;;;;;;;-7.60;75.93;100992.25;4922618;28;20115;-62
2022/12/12 14:27:04;;;;;;;24.15;9.10;;;;;;;-7.54;75.47;101000.28;4900886;28;20041;-62
2022/12/12 14:30:18;;;;;;;28.55;9.43;;;;;;;-7.62;75.68;100981.09;4883638;28;20049;-63
2022/12/12 14:33:02;;;;;;;26.98;9.63;;;;;;;-7.47;76.02;100994.84;4901188;28;20040;-63
2022/12/12 14:36:06;;;;;;;25.42;10.00;;;;;;;-7.40;76.23;100991.06;4911321;28;20062;-62
2022/12/12 14:39:00;;;;;;;21.95;9.18;;;;;;;-7.33;76.36;100989.81;4906245;28;20045;-62
2022/12/12 14:42:01;;;;;;;22.02;9.05;;;;;;;-7.28;76.49;100996.09;4916384;28;20063;-62
2022/12/12 14:44:53;;;;;;;23.92;9.43;;;;;;;-7.20;76.67;100994.94;4900779;28;20044;-64
2022/12/12 14:47:36;;;;;;;16.00;8.75;;;;;;;-7.12;76.81;100991.22;4902080;28;20044;-63
2022/12/12 14:50:48;;;;;;;22.33;9.05;;;;;;;-7.07;77.30;100987.31;4901269;28;20100;-62
2022/12/12 14:53:53;;;;;;;14.60;6.43;;;;;;;-7.28;77.61;100922.44;4813035;28;20051;-62
2022/12/12 14:56:53;;;;;;;16.88;7.22;;;;;;;-7.05;77.52;100955.28;4819449;28;20043;-62
2022/12/12 14:59:39;;;;;;;18.80;7.60;;;;;;;-6.97;77.81;100959.19;4814896;28;20077;-62
2022/12/12 15:02:25;;;;;;;17.13;6.72;;;;;;;-6.89;77.91;100956.28;4824653;28;20042;-62
2022/12/12 15:05:07;;;;;;;17.10;7.47;;;;;;;-6.86;78.23;100957.38;4836442;28;20347;-62
2022/12/12 15:08:00;;;;;;;15.60;6.38;;;;;;;-7.13;78.12;100915.81;4843399;28;20057;-62
2022/12/12 15:11:03;;;;;;;13.93;7.45;;;;;;;-6.82;78.16;100953.34;4838565;28;20038;-62
2022/12/12 15:13:55;;;;;;;17.40;7.20;;;;;;;-6.76;78.63;100958.84;4817689;28;20378;-62
2022/12/12 15:16:58;;;;;;;15.65;6.22;;;;;;;-6.66;78.96;100945.94;4837036;28;20070;-62
2022/12/12 15:19:46;;;;;;;11.13;5.28;;;;;;;-7.14;78.49;100872.53;4822134;28;20266;-61
2022/12/12 15:22:39;;;;;;;16.02;6.15;;;;;;;-7.35;78.93;100827.22;4839974;28;20046;-62
2022/12/12 15:25:26;;;;;;;14.23;7.25;;;;;;;-6.64;78.91;100928.22;4850374;28;20043;-62
2022/12/12 15:28:23;;;;;;;14.95;6.32;;;;;;;-6.71;79.44;100932.06;4866034;28;20238;-62
2022/12/12 15:33:58;;;;;;;11.05;4.90;;;;;;;-6.45;80.23;100928.59;4890211;28;20045;-62
2022/12/12 15:36:36;;;;;;;11.40;5.13;;;;;;;-6.43;79.99;100926.16;4809754;28;20033;-62
2022/12/12 15:39:27;;;;;;;8.57;4.78;;;;;;;-6.43;79.97;100918.53;4906525;28;20139;-61
2022/12/12 15:42:14;;;;;;;10.00;4.90;;;;;;;-6.39;80.33;100915.38;4900042;28;20093;-62
2022/12/12 15:45:07;;;;;;;11.82;5.40;;;;;;;-6.33;80.56;100920.84;4888634;28;20055;-62
2022/12/12 15:47:51;;;;;;;11.00;4.10;;;;;;;-6.27;80.76;100905.97;4901240;28;20049;-62
2022/12/12 15:51:07;;;;;;;11.20;4.68;;;;;;;-6.23;80.72;100907.91;4928777;28;20051;-63
2022/12/12 15:54:01;;;;;;;7.18;4.43;;;;;;;-6.20;80.82;100908.09;4875750;28;20042;-62
2022/12/12 15:56:55;;;;;;;9.85;4.75;;;;;;;-6.14;80.93;100898.31;4894158;28;20037;-63
2022/12/12 15:59:36;;;;;;;9.50;4.47;;;;;;;-6.09;81.29;100891.84;4896705;28;20060;-63
2022/12/12 16:02:36;;;;;;;11.95;3.85;;;;;;;-6.09;81.67;100868.94;4912399;28;20072;-63
2022/12/12 16:05:32;;;;;;;9.63;4.47;;;;;;;-6.10;81.65;100864.63;4903607;28;20041;-63
2022/12/12 16:08:46;;;;;;;11.43;4.80;;;;;;;-6.08;81.95;100873.22;4899561;28;20074;-63